Time;durP1;ratioP1;P1;durP2;ratioP2;P2;SDS_P1;SDS_P2;PMS_P1;PMS_P2;Temp;Humidity;BMP_temperature;BMP_pressure;BME280_temperature;BME280_humidity;BME280_pressure;Samples;Min_cycle;Max_cycle;Signal;HPM_P1;HPM_P2
2021/12/12 00:00:40;;;;;;;6.90;6.20;;;4.40;99.90;;;;;;5000825;28;19989;-77
2021/12/12 00:03:20;;;;;;;5.93;5.22;;;4.40;99.90;;;;;;5009118;28;20045;-79
2021/12/12 00:05:49;;;;;;;7.28;6.57;;;4.40;99.90;;;;;;5032344;28;20025;-77
2021/12/12 00:08:17;;;;;;;8.38;7.38;;;4.40;99.90;;;;;;5008913;28;20041;-77
2021/12/12 00:10:47;;;;;;;7.20;6.50;;;4.40;99.90;;;;;;5016893;28;20026;-78
2021/12/12 00:13:20;;;;;;;7.00;6.22;;;4.40;99.90;;;;;;5002175;28;20060;-76
2021/12/12 00:15:46;;;;;;;8.05;7.25;;;4.40;99.90;;;;;;4998807;28;20098;-77
2021/12/12 00:18:12;;;;;;;8.18;7.38;;;4.40;99.90;;;;;;5006975;28;20093;-78
2021/12/12 00:20:38;;;;;;;8.20;7.32;;;4.40;99.90;;;;;;5009249;28;20022;-77
2021/12/12 00:23:06;;;;;;;9.48;7.38;;;4.30;99.90;;;;;;4997759;28;20038;-76
2021/12/12 00:25:36;;;;;;;10.02;8.27;;;4.30;99.90;;;;;;4995360;28;20019;-77
2021/12/12 00:28:02;;;;;;;9.55;7.70;;;4.30;99.90;;;;;;5001077;28;20041;-77
2021/12/12 00:30:28;;;;;;;9.07;7.38;;;4.30;99.90;;;;;;4995346;28;20029;-78
2021/12/12 00:32:54;;;;;;;9.02;7.40;;;4.30;99.90;;;;;;5012775;28;20038;-77
2021/12/12 00:35:23;;;;;;;10.60;7.80;;;4.20;99.90;;;;;;5010517;28;20030;-77
2021/12/12 00:37:56;;;;;;;8.13;7.15;;;4.20;99.90;;;;;;4998655;28;20034;-77
2021/12/12 00:40:29;;;;;;;12.57;8.82;;;4.30;99.90;;;;;;4976450;28;20022;-77
2021/12/12 00:43:00;;;;;;;10.88;8.30;;;4.30;99.90;;;;;;5006467;28;20030;-78
2021/12/12 00:45:28;;;;;;;10.68;6.95;;;4.30;99.90;;;;;;5006707;28;20029;-77
2021/12/12 00:47:55;;;;;;;9.10;7.00;;;4.20;99.90;;;;;;4983778;28;20035;-78
2021/12/12 00:50:32;;;;;;;12.32;7.18;;;4.20;99.90;;;;;;4995133;28;20029;-79
2021/12/12 00:52:59;;;;;;;8.68;6.95;;;4.20;99.90;;;;;;4999990;28;20018;-78
2021/12/12 00:55:25;;;;;;;14.02;7.60;;;4.20;99.90;;;;;;4979859;28;20028;-77
2021/12/12 00:57:53;;;;;;;12.52;7.10;;;4.10;99.90;;;;;;4992708;28;20022;-77
2021/12/12 01:00:25;;;;;;;8.00;6.65;;;4.20;99.90;;;;;;5008379;28;20574;-78
2021/12/12 01:02:53;;;;;;;12.18;7.97;;;4.20;99.90;;;;;;4987433;28;20017;-79
2021/12/12 01:05:19;;;;;;;9.80;7.63;;;4.30;99.90;;;;;;4997733;28;20032;-77
2021/12/12 01:07:47;;;;;;;8.70;7.78;;;4.30;99.90;;;;;;5011655;28;20017;-80
2021/12/12 01:10:26;;;;;;;8.45;7.15;;;4.30;99.90;;;;;;5009689;28;20041;-80
2021/12/12 01:12:53;;;;;;;9.70;6.45;;;4.30;99.90;;;;;;4986103;28;20025;-81
2021/12/12 01:15:26;;;;;;;9.50;7.68;;;4.30;99.90;;;;;;5007426;28;20030;-80
2021/12/12 01:17:58;;;;;;;11.40;7.20;;;4.30;99.90;;;;;;5009729;28;20036;-80
2021/12/12 01:20:40;;;;;;;8.40;6.90;;;4.30;99.90;;;;;;4999439;28;20037;-80
2021/12/12 01:23:18;;;;;;;7.65;6.60;;;4.30;99.90;;;;;;5006877;28;20022;-78
2021/12/12 01:25:47;;;;;;;10.50;7.63;;;4.20;99.90;;;;;;4976786;28;20094;-79
2021/12/12 01:28:18;;;;;;;11.48;6.93;;;4.20;99.90;;;;;;4985471;28;20030;-77
2021/12/12 01:30:44;;;;;;;7.18;6.47;;;4.20;99.90;;;;;;5019488;28;20014;-78
2021/12/12 01:33:12;;;;;;;8.35;6.15;;;4.20;99.90;;;;;;5026392;28;20030;-77
2021/12/12 01:35:39;;;;;;;8.63;6.85;;;4.20;99.90;;;;;;5002988;28;20018;-77
2021/12/12 01:40:55;;;;;;;7.40;6.43;;;4.30;99.90;;;;;;5012660;28;20037;-76
2021/12/12 01:43:27;;;;;;;8.68;5.80;;;4.30;99.90;;;;;;5017742;28;20101;-77
2021/12/12 01:46:05;;;;;;;7.97;5.40;;;4.30;99.90;;;;;;5000234;28;20018;-79
2021/12/12 01:49:12;;;;;;;9.35;5.72;;;4.20;99.90;;;;;;4999949;28;20022;-78
2021/12/12 01:51:38;;;;;;;6.57;5.63;;;4.30;99.90;;;;;;4978315;28;20209;-78
2021/12/12 01:54:09;;;;;;;7.28;5.63;;;4.30;99.90;;;;;;4993774;28;20061;-78
2021/12/12 01:56:42;;;;;;;7.70;5.63;;;4.30;99.90;;;;;;5007205;28;20018;-77
2021/12/12 01:59:11;;;;;;;6.35;5.03;;;4.30;99.90;;;;;;4991315;28;20101;-77
2021/12/12 02:01:41;;;;;;;8.52;5.05;;;4.20;99.90;;;;;;5007704;28;20057;-78
2021/12/12 02:04:12;;;;;;;5.95;4.80;;;4.20;99.90;;;;;;5008286;28;20073;-79
2021/12/12 02:06:39;;;;;;;6.82;5.55;;;4.30;99.90;;;;;;4983980;28;20320;-78
2021/12/12 02:09:06;;;;;;;6.78;5.13;;;4.20;99.90;;;;;;4990167;28;20541;-78
2021/12/12 02:11:34;;;;;;;8.43;4.63;;;4.30;99.90;;;;;;4998702;28;20022;-77
2021/12/12 02:14:09;;;;;;;6.53;4.80;;;4.30;99.90;;;;;;4994463;28;20046;-77
2021/12/12 02:16:41;;;;;;;11.13;5.10;;;4.30;99.90;;;;;;4974891;28;20026;-79
2021/12/12 02:19:08;;;;;;;6.40;5.50;;;4.30;99.90;;;;;;5000989;28;20494;-78
2021/12/12 02:22:02;;;;;;;5.05;4.45;;;4.20;99.90;;;;;;4993268;28;20457;-78
2021/12/12 02:35:25;;;;;;;7.05;4.90;;;4.20;99.90;;;;;;4974354;28;20058;-78
2021/12/12 02:37:54;;;;;;;4.63;4.18;;;4.20;99.90;;;;;;5004269;28;20054;-79
2021/12/12 02:40:36;;;;;;;6.47;4.28;;;4.20;99.90;;;;;;5007559;28;20031;-77
2021/12/12 02:43:03;;;;;;;4.93;3.85;;;4.20;99.90;;;;;;4995051;28;20022;-78
2021/12/12 02:45:32;;;;;;;4.28;3.45;;;4.20;99.90;;;;;;4997871;28;20049;-78
2021/12/12 02:48:01;;;;;;;4.18;3.78;;;4.10;99.90;;;;;;4982548;28;20019;-77
2021/12/12 02:50:41;;;;;;;8.25;4.07;;;4.20;99.90;;;;;;4993953;28;20034;-78
2021/12/12 02:53:14;;;;;;;6.95;3.92;;;4.20;99.90;;;;;;5003714;28;20018;-78
2021/12/12 02:55:57;;;;;;;4.47;3.10;;;4.20;99.90;;;;;;4990242;28;20121;-78
2021/12/12 02:58:24;;;;;;;6.32;3.63;;;4.20;99.90;;;;;;5000410;28;20456;-78
2021/12/12 03:01:04;;;;;;;5.15;3.20;;;4.20;99.90;;;;;;4989598;28;20541;-78
2021/12/12 03:03:33;;;;;;;3.30;2.75;;;4.20;99.90;;;;;;5002911;28;20038;-77
2021/12/12 03:06:00;;;;;;;3.80;2.85;;;4.20;99.90;;;;;;5007179;28;20026;-79
2021/12/12 03:08:26;;;;;;;5.68;2.67;;;4.10;99.90;;;;;;4986697;28;20451;-78
2021/12/12 03:10:53;;;;;;;3.20;2.67;;;4.10;99.90;;;;;;4993977;28;20112;-80
2021/12/12 03:13:20;;;;;;;2.90;2.60;;;4.10;99.90;;;;;;5000267;28;20113;-79
2021/12/12 03:15:47;;;;;;;4.18;3.13;;;4.10;99.90;;;;;;5007575;28;20341;-80
2021/12/12 03:18:17;;;;;;;7.38;3.28;;;4.10;99.90;;;;;;4992521;28;20030;-77
2021/12/12 03:20:51;;;;;;;4.85;3.75;;;4.10;99.90;;;;;;5008640;28;20034;-79
2021/12/12 03:23:41;;;;;;;6.05;3.13;;;4.10;99.90;;;;;;5014103;28;20033;-77
2021/12/12 03:26:09;;;;;;;3.47;2.92;;;4.10;99.90;;;;;;5010200;28;20026;-76
2021/12/12 03:28:38;;;;;;;3.80;2.70;;;4.10;99.90;;;;;;5022510;28;20442;-76
2021/12/12 03:31:09;;;;;;;5.75;3.30;;;4.00;99.90;;;;;;5018684;28;20025;-76
2021/12/12 03:33:35;;;;;;;4.97;3.22;;;4.00;99.90;;;;;;5007704;28;20045;-78
2021/12/12 03:36:05;;;;;;;5.72;3.40;;;4.00;99.90;;;;;;5015723;28;20038;-76
2021/12/12 03:38:32;;;;;;;6.45;3.08;;;3.80;99.90;;;;;;5004776;28;20032;-77
2021/12/12 03:41:00;;;;;;;3.85;2.50;;;3.70;99.90;;;;;;5016415;28;20041;-79
2021/12/12 03:43:26;;;;;;;4.90;3.22;;;3.60;99.90;;;;;;5002070;28;20014;-75
2021/12/12 03:45:52;;;;;;;4.57;3.03;;;3.50;99.90;;;;;;5005384;28;20042;-76
2021/12/12 03:48:23;;;;;;;2.80;2.45;;;3.40;99.90;;;;;;5006265;28;20025;-74
2021/12/12 03:50:53;;;;;;;4.47;3.00;;;3.40;99.90;;;;;;5000636;28;20033;-76
2021/12/12 03:53:19;;;;;;;5.03;3.60;;;3.30;99.90;;;;;;5001470;28;20026;-74
2021/12/12 03:55:46;;;;;;;7.80;3.03;;;3.30;99.90;;;;;;5002766;28;20509;-75
2021/12/12 03:58:13;;;;;;;5.47;2.80;;;3.30;99.90;;;;;;5001991;28;20398;-74
2021/12/12 04:00:47;;;;;;;5.97;2.78;;;3.20;99.90;;;;;;4994802;28;20109;-75
2021/12/12 04:03:14;;;;;;;4.05;2.90;;;3.20;99.90;;;;;;5003492;28;20125;-75
2021/12/12 04:05:43;;;;;;;6.55;2.90;;;3.20;99.90;;;;;;5009594;28;20101;-75
2021/12/12 04:08:09;;;;;;;6.20;3.63;;;3.10;99.90;;;;;;5002069;28;20022;-75
2021/12/12 04:10:35;;;;;;;3.80;2.92;;;3.10;99.90;;;;;;5002653;28;20024;-76
2021/12/12 04:13:01;;;;;;;7.20;3.60;;;3.00;99.90;;;;;;5005346;28;20018;-75
2021/12/12 04:15:26;;;;;;;4.93;3.03;;;2.90;99.90;;;;;;5002631;28;20027;-76
2021/12/12 04:17:52;;;;;;;6.38;4.15;;;2.80;99.90;;;;;;5003204;28;20026;-75
2021/12/12 04:20:30;;;;;;;3.17;2.88;;;2.70;99.90;;;;;;5001694;28;20117;-75
2021/12/12 04:22:56;;;;;;;10.65;2.90;;;2.70;99.90;;;;;;5000840;28;20041;-73
2021/12/12 04:25:23;;;;;;;4.70;3.42;;;2.60;99.90;;;;;;5000900;28;20095;-76
2021/12/12 04:27:49;;;;;;;5.63;3.50;;;2.50;99.90;;;;;;5003331;28;20026;-76
2021/12/12 04:30:16;;;;;;;6.18;3.03;;;2.40;99.90;;;;;;5002993;28;20156;-76
2021/12/12 04:32:43;;;;;;;6.72;3.45;;;2.40;99.90;;;;;;5002152;28;20569;-76
2021/12/12 04:35:14;;;;;;;6.53;4.15;;;2.30;99.90;;;;;;5004002;28;20030;-74
2021/12/12 04:37:41;;;;;;;7.05;4.00;;;2.30;99.90;;;;;;5000159;28;20038;-75
2021/12/12 04:40:10;;;;;;;8.10;3.75;;;2.20;99.90;;;;;;4983804;28;20057;-76
2021/12/12 04:42:39;;;;;;;9.65;4.53;;;2.30;99.90;;;;;;5007081;28;20022;-76
2021/12/12 04:45:30;;;;;;;7.03;3.85;;;2.20;99.90;;;;;;4982508;28;20068;-75
2021/12/12 04:51:11;;;;;;;6.43;4.40;;;2.20;99.90;;;;;;4999139;28;20157;-75
2021/12/12 04:54:01;;;;;;;4.40;3.80;;;2.20;99.90;;;;;;4996532;28;20488;-76
2021/12/12 04:56:33;;;;;;;6.68;4.30;;;2.10;99.90;;;;;;4997984;28;20308;-75
2021/12/12 04:59:15;;;;;;;7.43;4.78;;;2.10;99.90;;;;;;5009606;28;20072;-75
2021/12/12 05:02:21;;;;;;;7.93;4.55;;;2.10;99.90;;;;;;5003917;28;20026;-77
2021/12/12 05:05:09;;;;;;;6.90;4.05;;;2.10;99.90;;;;;;5008157;28;20080;-76
2021/12/12 05:07:42;;;;;;;5.00;3.60;;;2.20;99.90;;;;;;5000563;28;20019;-76
2021/12/12 05:10:39;;;;;;;8.52;4.25;;;2.20;99.90;;;;;;5000851;28;20022;-74
2021/12/12 05:13:21;;;;;;;8.48;4.28;;;2.10;99.90;;;;;;4995977;28;20030;-76
2021/12/12 05:15:53;;;;;;;5.30;3.72;;;2.00;99.90;;;;;;5000727;28;20015;-76
2021/12/12 05:18:27;;;;;;;7.35;4.32;;;2.00;99.90;;;;;;5002128;28;20181;-75
2021/12/12 05:20:59;;;;;;;6.25;4.57;;;2.00;99.90;;;;;;4996376;28;20018;-74
2021/12/12 05:23:28;;;;;;;5.47;4.10;;;2.00;99.90;;;;;;5004951;28;20100;-75
2021/12/12 05:25:58;;;;;;;5.28;4.00;;;2.00;99.90;;;;;;4995595;28;20486;-74
2021/12/12 05:28:28;;;;;;;8.38;4.90;;;2.10;99.90;;;;;;4987742;28;20084;-75
2021/12/12 05:30:54;;;;;;;6.30;4.32;;;2.10;99.90;;;;;;4998911;28;20534;-77
2021/12/12 05:33:20;;;;;;;7.35;4.55;;;2.10;99.90;;;;;;5011019;28;20172;-75
2021/12/12 05:35:47;;;;;;;4.28;3.65;;;2.20;99.90;;;;;;5001212;28;20509;-77
2021/12/12 05:38:13;;;;;;;5.35;4.13;;;2.30;99.90;;;;;;5005086;28;20081;-76
2021/12/12 05:40:41;;;;;;;7.25;4.63;;;2.40;99.90;;;;;;5007741;28;20486;-75
2021/12/12 05:43:08;;;;;;;4.88;3.90;;;2.30;99.90;;;;;;5000055;28;20034;-75
2021/12/12 05:45:35;;;;;;;4.18;3.42;;;2.40;99.90;;;;;;5006882;28;20018;-75
2021/12/12 05:48:03;;;;;;;5.45;3.60;;;2.40;99.90;;;;;;4996737;28;20018;-76
2021/12/12 05:50:29;;;;;;;4.05;3.30;;;2.50;99.90;;;;;;4996335;28;20447;-75
2021/12/12 05:52:55;;;;;;;3.97;3.58;;;2.50;99.90;;;;;;4980635;28;20109;-75
2021/12/12 05:55:29;;;;;;;3.63;3.33;;;2.50;99.90;;;;;;4988115;28;20117;-75
2021/12/12 05:57:58;;;;;;;4.90;3.60;;;2.50;99.90;;;;;;5003807;28;20403;-74
2021/12/12 06:00:31;;;;;;;6.05;3.70;;;2.50;99.90;;;;;;5009855;28;20021;-75
2021/12/12 06:02:57;;;;;;;5.30;3.42;;;2.50;99.90;;;;;;4996574;28;20097;-75
2021/12/12 06:05:23;;;;;;;4.95;4.45;;;2.50;99.90;;;;;;4993359;28;20027;-75
2021/12/12 06:07:53;;;;;;;6.38;4.07;;;2.50;99.90;;;;;;5006853;28;20076;-75
2021/12/12 06:10:20;;;;;;;4.88;3.17;;;2.50;99.90;;;;;;5006039;28;20108;-76
2021/12/12 06:12:46;;;;;;;5.43;3.80;;;2.50;99.90;;;;;;4998740;28;20018;-75
2021/12/12 06:15:16;;;;;;;8.55;5.78;;;2.60;99.90;;;;;;5002374;28;20030;-76
2021/12/12 06:17:45;;;;;;;4.38;3.25;;;2.40;99.90;;;;;;4998873;28;20086;-76
2021/12/12 06:20:12;;;;;;;4.75;3.65;;;2.50;99.90;;;;;;4992798;28;20033;-75
2021/12/12 06:22:38;;;;;;;6.20;4.40;;;2.50;99.90;;;;;;4984355;28;20409;-75
2021/12/12 06:25:06;;;;;;;4.95;3.40;;;2.50;99.90;;;;;;5003542;28;20101;-75
2021/12/12 06:27:32;;;;;;;4.43;4.03;;;2.50;99.90;;;;;;5003663;28;20077;-75
2021/12/12 06:29:58;;;;;;;5.07;3.72;;;2.40;99.90;;;;;;4995569;28;20088;-76
2021/12/12 06:32:24;;;;;;;5.93;4.25;;;2.50;99.90;;;;;;5008566;28;20019;-76
2021/12/12 06:34:51;;;;;;;4.63;4.05;;;2.40;99.90;;;;;;5000539;28;20026;-73
2021/12/12 06:37:17;;;;;;;7.00;4.53;;;2.40;99.90;;;;;;5015287;28;20050;-75
2021/12/12 06:39:44;;;;;;;7.63;4.18;;;2.40;99.90;;;;;;5006820;28;20046;-75
2021/12/12 06:42:12;;;;;;;5.65;4.05;;;2.40;99.90;;;;;;5009932;28;20394;-75
2021/12/12 06:44:40;;;;;;;5.05;3.95;;;2.40;99.90;;;;;;5005964;28;20026;-75
2021/12/12 06:47:12;;;;;;;4.57;3.58;;;2.50;99.90;;;;;;5003660;28;20026;-76
2021/12/12 06:49:37;;;;;;;3.95;3.50;;;2.50;99.90;;;;;;5008849;28;20014;-76
2021/12/12 06:52:06;;;;;;;5.07;3.67;;;2.40;99.90;;;;;;5009691;28;20367;-76
2021/12/12 06:54:32;;;;;;;5.45;3.92;;;2.30;99.90;;;;;;4992565;28;20018;-75
2021/12/12 06:57:02;;;;;;;4.47;3.80;;;2.20;99.90;;;;;;5007409;28;20037;-76
2021/12/12 06:59:30;;;;;;;6.70;4.57;;;2.10;99.90;;;;;;4996661;28;20018;-75
2021/12/12 07:01:58;;;;;;;5.38;4.22;;;2.10;99.90;;;;;;4991510;28;20105;-75
2021/12/12 07:04:24;;;;;;;4.05;3.65;;;2.10;99.90;;;;;;4985709;28;20032;-77
2021/12/12 07:06:57;;;;;;;5.63;4.57;;;2.10;99.90;;;;;;4999198;28;20018;-75
2021/12/12 07:09:23;;;;;;;8.80;4.25;;;2.20;99.90;;;;;;4990230;28;20104;-76
2021/12/12 07:11:49;;;;;;;5.88;4.57;;;2.20;99.90;;;;;;5007596;28;20018;-76
2021/12/12 07:14:16;;;;;;;7.85;4.68;;;2.20;99.90;;;;;;5005780;28;20037;-75
2021/12/12 07:16:44;;;;;;;8.63;4.55;;;2.20;99.90;;;;;;4993171;28;20030;-75
2021/12/12 07:19:10;;;;;;;6.75;4.75;;;2.10;99.90;;;;;;4985125;28;20040;-75
2021/12/12 07:21:37;;;;;;;5.95;5.15;;;2.20;99.90;;;;;;4986361;28;20029;-76
2021/12/12 07:24:05;;;;;;;5.18;4.68;;;2.10;99.90;;;;;;5005406;28;20160;-76
2021/12/12 07:26:31;;;;;;;5.32;4.60;;;2.20;99.90;;;;;;5009546;28;20018;-75
2021/12/12 07:28:59;;;;;;;5.93;5.32;;;2.10;99.90;;;;;;5004518;28;20011;-75
2021/12/12 07:31:28;;;;;;;7.85;4.65;;;2.20;99.90;;;;;;5009071;28;20021;-75
2021/12/12 07:33:57;;;;;;;7.03;4.75;;;2.20;99.90;;;;;;4999985;28;20068;-75
2021/12/12 07:36:24;;;;;;;5.78;4.93;;;2.20;99.90;;;;;;5004803;28;20046;-76
2021/12/12 07:38:56;;;;;;;6.43;4.30;;;2.10;99.90;;;;;;5009356;28;20482;-75
2021/12/12 07:41:26;;;;;;;7.93;4.72;;;2.20;99.90;;;;;;4987442;28;20025;-75
2021/12/12 07:43:53;;;;;;;5.70;4.60;;;2.20;99.90;;;;;;5001616;28;20034;-76
2021/12/12 07:46:19;;;;;;;7.97;4.70;;;2.30;99.90;;;;;;4995883;28;20494;-76
2021/12/12 07:48:47;;;;;;;5.45;4.55;;;2.30;99.90;;;;;;5003646;28;20052;-75
2021/12/12 07:51:14;;;;;;;5.75;4.22;;;2.50;99.90;;;;;;5011499;28;20089;-75
2021/12/12 07:53:40;;;;;;;7.90;4.97;;;2.50;99.90;;;;;;5012859;28;20105;-76
2021/12/12 07:56:06;;;;;;;4.55;4.13;;;2.50;99.90;;;;;;5007234;28;20018;-74
2021/12/12 07:58:33;;;;;;;5.10;3.60;;;2.60;99.90;;;;;;5001167;28;20053;-76
2021/12/12 08:01:00;;;;;;;5.63;4.10;;;2.80;99.90;;;;;;5006451;28;20026;-74
2021/12/12 08:03:32;;;;;;;6.07;4.30;;;2.90;99.90;;;;;;5008505;28;20026;-75
2021/12/12 08:06:00;;;;;;;4.60;3.78;;;3.00;99.90;;;;;;5014183;28;20022;-75
2021/12/12 08:08:27;;;;;;;4.85;4.35;;;3.00;99.90;;;;;;5005654;28;20021;-77
2021/12/12 08:10:54;;;;;;;6.25;4.47;;;3.10;99.90;;;;;;5001877;28;20471;-76
2021/12/12 08:13:20;;;;;;;4.22;3.65;;;3.30;99.90;;;;;;4993928;28;20433;-74
2021/12/12 08:15:47;;;;;;;3.72;3.42;;;3.50;99.90;;;;;;4999038;28;20514;-76
2021/12/12 08:18:15;;;;;;;4.80;4.28;;;3.50;99.90;;;;;;5000206;28;20103;-75
2021/12/12 08:20:43;;;;;;;5.50;4.13;;;3.60;99.90;;;;;;5007147;28;20045;-74
2021/12/12 08:23:10;;;;;;;5.88;3.30;;;3.70;99.90;;;;;;5003322;28;20517;-75
2021/12/12 08:25:37;;;;;;;5.40;3.97;;;3.70;99.90;;;;;;5001789;28;20018;-74
2021/12/12 08:28:05;;;;;;;3.80;3.33;;;3.80;99.90;;;;;;5012134;28;20474;-75
2021/12/12 08:30:33;;;;;;;3.10;2.80;;;3.80;99.90;;;;;;5009959;28;20379;-75
2021/12/12 08:32:59;;;;;;;4.13;3.70;;;3.90;99.90;;;;;;5002862;28;20378;-77
2021/12/12 08:35:26;;;;;;;3.50;3.20;;;4.10;99.90;;;;;;4997820;28;20047;-76
2021/12/12 08:37:54;;;;;;;5.65;2.75;;;4.00;99.90;;;;;;5002934;28;20137;-75
2021/12/12 08:40:25;;;;;;;3.58;2.92;;;4.00;99.90;;;;;;5005051;28;20022;-76
2021/12/12 08:42:53;;;;;;;3.15;2.85;;;4.20;99.90;;;;;;5006701;28;20049;-76
2021/12/12 08:45:22;;;;;;;3.00;2.67;;;4.00;99.90;;;;;;5004839;28;20495;-75
2021/12/12 08:47:49;;;;;;;3.03;2.72;;;4.20;99.90;;;;;;5000854;28;20350;-76
2021/12/12 08:50:21;;;;;;;3.58;3.20;;;4.10;99.90;;;;;;5003619;28;20018;-77
2021/12/12 08:52:48;;;;;;;3.03;2.65;;;4.10;99.90;;;;;;4995538;28;20018;-74
2021/12/12 08:55:19;;;;;;;2.85;2.35;;;4.20;99.90;;;;;;5010285;28;20482;-75
2021/12/12 08:58:01;;;;;;;2.70;2.40;;;4.10;99.90;;;;;;5006817;28;20430;-76
2021/12/12 09:00:34;;;;;;;4.13;2.75;;;4.20;99.90;;;;;;5012904;28;20026;-76
2021/12/12 09:03:00;;;;;;;3.28;2.42;;;4.40;99.90;;;;;;5008146;28;20041;-76
2021/12/12 09:05:32;;;;;;;2.60;2.15;;;4.40;99.90;;;;;;5010373;28;20030;-77
2021/12/12 09:08:06;;;;;;;3.28;2.97;;;4.30;99.90;;;;;;5009286;28;20105;-76
2021/12/12 09:10:57;;;;;;;3.47;2.75;;;4.40;99.90;;;;;;5009128;28;20025;-76
2021/12/12 09:13:26;;;;;;;;;;;4.40;99.90;;;;;;5010160;28;20029;-76
2021/12/12 09:16:30;;;;;;;3.10;2.30;;;4.40;99.90;;;;;;5007695;28;20173;-76
2021/12/12 09:19:04;;;;;;;4.07;2.80;;;4.50;99.90;;;;;;4998047;28;20498;-75
2021/12/12 09:21:49;;;;;;;3.15;2.80;;;4.50;99.90;;;;;;5006856;28;20425;-75
2021/12/12 09:24:47;;;;;;;3.55;3.25;;;4.40;99.90;;;;;;4984857;28;20037;-75
2021/12/12 09:27:30;;;;;;;4.93;3.38;;;4.50;99.90;;;;;;5002083;28;20422;-77
2021/12/12 09:30:29;;;;;;;4.45;3.78;;;4.40;99.90;;;;;;5000406;28;20017;-76
2021/12/12 09:33:20;;;;;;;2.97;2.70;;;4.40;99.90;;;;;;5012282;28;20036;-76
2021/12/12 09:36:04;;;;;;;2.92;2.50;;;4.40;99.90;;;;;;5016444;28;20069;-75
2021/12/12 09:38:38;;;;;;;3.42;2.60;;;4.40;99.90;;;;;;5019223;28;20030;-76
2021/12/12 09:41:29;;;;;;;2.55;2.10;;;4.50;99.90;;;;;;5007944;28;20026;-76
2021/12/12 09:44:14;;;;;;;;;;;4.60;99.90;;;;;;5004724;28;20068;-75
2021/12/12 09:47:30;;;;;;;3.50;2.30;;;4.60;99.90;;;;;;5013174;28;20328;-76
2021/12/12 09:53:19;;;;;;;1.83;1.73;;;4.70;99.90;;;;;;5006575;28;20076;-77
2021/12/12 09:56:05;;;;;;;2.60;1.88;;;4.80;99.90;;;;;;4999669;28;20046;-76
2021/12/12 09:58:52;;;;;;;2.30;1.90;;;5.00;99.90;;;;;;5010137;28;20025;-76
2021/12/12 10:01:21;;;;;;;2.28;2.08;;;5.10;99.90;;;;;;5001637;28;20022;-77
2021/12/12 10:04:19;;;;;;;2.55;1.80;;;5.10;99.90;;;;;;5002933;28;20034;-77
2021/12/12 10:07:06;;;;;;;3.15;2.00;;;5.20;99.90;;;;;;4911893;28;20048;-76
2021/12/12 10:09:52;;;;;;;5.38;2.60;;;5.20;99.90;;;;;;5002256;28;20022;-76
2021/12/12 10:12:22;;;;;;;2.78;2.13;;;5.20;99.90;;;;;;4986472;28;20026;-77
2021/12/12 10:14:53;;;;;;;2.80;2.40;;;5.30;99.90;;;;;;4996505;28;20022;-77
2021/12/12 10:17:28;;;;;;;3.70;1.85;;;5.30;99.90;;;;;;5010223;28;20040;-77
2021/12/12 10:20:22;;;;;;;3.38;2.10;;;5.30;99.90;;;;;;5005478;28;20093;-76
2021/12/12 10:23:07;;;;;;;6.30;2.40;;;5.30;99.90;;;;;;5007079;28;20029;-76
2021/12/12 10:25:50;;;;;;;3.03;2.05;;;5.40;99.90;;;;;;5001412;28;20022;-78
2021/12/12 10:28:33;;;;;;;2.88;2.00;;;5.50;99.90;;;;;;5012470;28;20026;-77
2021/12/12 10:31:05;;;;;;;2.85;1.73;;;5.60;99.90;;;;;;5022259;28;20010;-77
2021/12/12 10:34:15;;;;;;;3.08;1.70;;;5.70;99.90;;;;;;5018221;28;20018;-76
2021/12/12 10:37:00;;;;;;;1.83;1.60;;;5.90;99.90;;;;;;5001603;28;20073;-77
2021/12/12 10:39:42;;;;;;;1.77;1.60;;;5.80;99.90;;;;;;5032623;28;20040;-76
2021/12/12 10:42:12;;;;;;;3.08;1.50;;;5.80;99.90;;;;;;5022686;28;20025;-76
2021/12/12 10:44:46;;;;;;;2.53;1.40;;;5.80;99.90;;;;;;5025494;28;20042;-74
2021/12/12 10:47:14;;;;;;;2.47;1.60;;;5.90;99.90;;;;;;5019971;28;20056;-77
2021/12/12 10:49:56;;;;;;;1.85;1.42;;;5.90;99.90;;;;;;5022523;28;20010;-76
2021/12/12 10:52:48;;;;;;;2.05;1.48;;;5.90;99.90;;;;;;5010547;28;20536;-76
2021/12/12 10:55:24;;;;;;;1.60;1.27;;;6.00;99.90;;;;;;5009219;28;20017;-76
2021/12/12 10:58:03;;;;;;;4.15;1.50;;;6.10;99.90;;;;;;5000254;28;20018;-76
2021/12/12 11:00:32;;;;;;;2.45;1.45;;;6.10;99.90;;;;;;5020900;28;20021;-76
2021/12/12 11:03:34;;;;;;;2.95;1.65;;;6.10;99.90;;;;;;5011713;28;20057;-77
2021/12/12 11:06:32;;;;;;;2.22;1.77;;;6.10;99.90;;;;;;5027317;28;20054;-76
2021/12/12 11:09:18;;;;;;;2.95;1.67;;;6.20;99.90;;;;;;5030275;28;20026;-76
2021/12/12 11:11:48;;;;;;;2.65;2.20;;;6.30;99.90;;;;;;5037060;28;20029;-76
2021/12/12 11:14:35;;;;;;;1.73;1.40;;;6.40;99.90;;;;;;5031829;28;20022;-76
2021/12/12 11:17:09;;;;;;;4.32;1.92;;;6.60;99.90;;;;;;5029699;28;20018;-76
2021/12/12 11:20:01;;;;;;;2.03;1.58;;;6.80;99.90;;;;;;5007343;28;20027;-76
2021/12/12 11:22:40;;;;;;;5.03;1.30;;;6.70;99.90;;;;;;5005694;28;20022;-76
2021/12/12 11:25:18;;;;;;;3.63;1.38;;;6.70;99.90;;;;;;5014771;28;20022;-76
2021/12/12 11:27:51;;;;;;;2.53;1.85;;;6.60;99.90;;;;;;5005665;28;20014;-79
2021/12/12 11:30:26;;;;;;;2.35;1.50;;;6.50;99.90;;;;;;5009547;28;20105;-78
2021/12/12 11:32:54;;;;;;;2.88;1.60;;;6.60;99.90;;;;;;4997873;28;20056;-79
2021/12/12 11:35:24;;;;;;;1.88;1.63;;;6.80;99.90;;;;;;5011104;28;20068;-78
2021/12/12 11:37:56;;;;;;;3.50;1.95;;;7.10;99.90;;;;;;4998332;28;20048;-79
2021/12/12 11:40:37;;;;;;;2.35;1.80;;;7.10;99.90;;;;;;4990695;28;20029;-76
2021/12/12 11:43:32;;;;;;;3.65;1.55;;;7.10;99.90;;;;;;5016968;28;20061;-78
2021/12/12 11:46:02;;;;;;;1.52;1.40;;;7.00;99.90;;;;;;5018920;28;20567;-79
2021/12/12 11:48:45;;;;;;;2.97;1.70;;;6.80;99.90;;;;;;5031423;28;20066;-77
2021/12/12 11:51:28;;;;;;;1.42;1.17;;;6.80;99.90;;;;;;5033261;28;20029;-80
2021/12/12 11:54:15;;;;;;;2.40;1.73;;;6.80;99.90;;;;;;5018663;28;20037;-77
2021/12/12 11:56:45;;;;;;;2.72;1.80;;;6.70;99.90;;;;;;5026569;28;20033;-77
2021/12/12 11:59:20;;;;;;;2.60;1.30;;;6.80;99.90;;;;;;5016569;28;20040;-77
2021/12/12 12:01:51;;;;;;;1.77;1.48;;;6.80;99.90;;;;;;5028139;28;20022;-76
2021/12/12 12:04:54;;;;;;;2.63;1.55;;;6.80;99.90;;;;;;4994891;28;20117;-78
2021/12/12 12:07:56;;;;;;;2.25;1.52;;;7.10;99.90;;;;;;5015457;28;20018;-78
2021/12/12 12:10:34;;;;;;;3.60;1.92;;;7.00;99.90;;;;;;4991714;28;20048;-81
2021/12/12 12:13:26;;;;;;;2.65;1.45;;;7.20;99.90;;;;;;5015766;28;20072;-83
2021/12/12 12:16:17;;;;;;;2.88;1.35;;;7.10;99.90;;;;;;5009894;28;20191;-82
2021/12/12 12:19:05;;;;;;;1.63;1.52;;;7.10;99.90;;;;;;5019361;28;20482;-81
2021/12/12 12:22:09;;;;;;;2.08;1.60;;;7.30;99.90;;;;;;5010082;28;20028;-83
2021/12/12 12:24:57;;;;;;;2.08;1.70;;;7.30;99.90;;;;;;4954419;28;20018;-81
2021/12/12 12:27:46;;;;;;;1.85;1.73;;;7.40;99.90;;;;;;5019222;28;20037;-80
2021/12/12 12:30:30;;;;;;;2.53;2.00;;;7.30;99.90;;;;;;5023575;28;20030;-78
2021/12/12 12:33:33;;;;;;;2.97;1.60;;;7.50;99.90;;;;;;5014706;28;20025;-80
2021/12/12 12:36:37;;;;;;;3.08;1.77;;;7.30;99.90;;;;;;5014453;28;20033;-81
2021/12/12 12:39:31;;;;;;;1.73;1.40;;;7.20;99.90;;;;;;5028685;28;20010;-80
2021/12/12 12:42:09;;;;;;;2.90;2.60;;;7.20;99.90;;;;;;5023442;28;20010;-82
2021/12/12 12:44:56;;;;;;;3.45;1.90;;;7.10;99.90;;;;;;5014491;28;20022;-80
2021/12/12 12:47:58;;;;;;;2.30;1.70;;;7.10;99.90;;;;;;5025128;28;20022;-79
2021/12/12 12:50:42;;;;;;;4.15;2.28;;;7.10;99.90;;;;;;5029903;28;20032;-82
2021/12/12 12:53:53;;;;;;;2.35;1.60;;;7.20;99.90;;;;;;5011382;28;20037;-82
2021/12/12 12:56:56;;;;;;;2.25;1.50;;;7.20;99.90;;;;;;5018713;28;20023;-81
2021/12/12 12:59:40;;;;;;;2.90;1.35;;;7.30;99.90;;;;;;4983339;28;20102;-81
2021/12/12 13:02:15;;;;;;;5.35;1.70;;;7.30;99.90;;;;;;5009727;28;20570;-80
2021/12/12 13:05:04;;;;;;;3.90;1.80;;;7.30;99.90;;;;;;5005811;28;20037;-82
2021/12/12 13:08:07;;;;;;;2.33;1.65;;;7.30;99.90;;;;;;5013028;28;20014;-79
2021/12/12 13:10:34;;;;;;;2.33;2.00;;;7.30;99.90;;;;;;5013723;28;20071;-81
2021/12/12 13:13:41;;;;;;;2.65;1.73;;;7.40;99.90;;;;;;5012639;28;20429;-81
2021/12/12 13:16:26;;;;;;;2.17;1.92;;;7.50;99.90;;;;;;4969183;28;20092;-81
2021/12/12 13:19:03;;;;;;;3.13;1.60;;;7.70;99.90;;;;;;4976408;28;20550;-80
2021/12/12 13:21:32;;;;;;;2.22;2.03;;;7.70;99.90;;;;;;4996960;28;20038;-82
2021/12/12 13:24:36;;;;;;;5.22;1.52;;;7.60;99.90;;;;;;5002737;28;20026;-81
2021/12/12 13:27:21;;;;;;;2.75;1.80;;;7.40;99.90;;;;;;4965740;28;20482;-81
2021/12/12 13:30:09;;;;;;;4.85;1.80;;;7.40;99.90;;;;;;5017571;28;20021;-81
2021/12/12 13:32:50;;;;;;;3.78;1.77;;;7.40;99.90;;;;;;5016429;28;20049;-80
2021/12/12 13:35:19;;;;;;;1.83;1.52;;;7.60;99.90;;;;;;5002831;28;20025;-80
2021/12/12 13:38:10;;;;;;;2.38;1.35;;;7.60;99.90;;;;;;5011649;28;20054;-82
2021/12/12 13:40:47;;;;;;;;;;;7.50;99.90;;;;;;5010640;28;20026;-81
2021/12/12 13:43:19;;;;;;;2.30;1.50;;;7.30;99.90;;;;;;5014093;28;19905;-80
2021/12/12 13:46:06;;;;;;;2.00;1.48;;;7.40;99.90;;;;;;5011003;28;20034;-80
2021/12/12 13:48:55;;;;;;;2.60;1.33;;;7.30;99.90;;;;;;5003447;28;20022;-82
2021/12/12 13:51:38;;;;;;;2.72;1.83;;;7.20;99.90;;;;;;5018695;28;20020;-80
2021/12/12 13:54:46;;;;;;;1.60;1.45;;;7.20;99.90;;;;;;5016699;28;20033;-82
2021/12/12 13:57:20;;;;;;;2.45;1.65;;;7.30;99.90;;;;;;5018501;28;20084;-81